createdAt,value
2018-12-29T00:00:03.046Z,0
2018-12-29T00:05:03.000Z,0
2018-12-29T00:10:03.625Z,0
2018-12-29T00:15:03.161Z,0
2018-12-29T00:20:02.750Z,0
2018-12-29T00:25:03.314Z,0
2018-12-29T00:30:02.811Z,0
2018-12-29T00:35:03.421Z,0
2018-12-29T00:40:02.893Z,0
2018-12-29T00:45:03.549Z,0
2018-12-29T00:50:03.020Z,0
2018-12-29T00:55:03.506Z,0
2018-12-29T01:00:03.002Z,0
2018-12-29T01:05:03.690Z,0
2018-12-29T01:10:03.266Z,0
2018-12-29T01:15:10.739Z,0
2018-12-29T01:20:03.160Z,0
2018-12-29T01:25:03.736Z,0
2018-12-29T01:30:03.241Z,0
2018-12-29T01:35:02.791Z,0
2018-12-29T01:40:03.337Z,0
2018-12-29T01:45:02.791Z,0
2018-12-29T01:50:03.494Z,0
2018-12-29T01:55:02.944Z,0
2018-12-29T02:00:03.466Z,0
2018-12-29T02:05:03.098Z,0
2018-12-29T02:10:03.684Z,0
2018-12-29T02:15:03.107Z,0
2018-12-29T02:20:03.642Z,0
2018-12-29T02:25:03.119Z,0
2018-12-29T02:30:03.680Z,0
2018-12-29T02:35:03.254Z,0
2018-12-29T02:40:03.011Z,0
2018-12-29T02:45:03.541Z,0
2018-12-29T02:50:03.200Z,0
2018-12-29T02:55:03.766Z,0
2018-12-29T03:00:03.369Z,0
2018-12-29T03:05:02.868Z,0
2018-12-29T03:10:03.358Z,0
2018-12-29T03:15:03.037Z,0
2018-12-29T03:20:03.628Z,0
2018-12-29T03:25:03.178Z,0
2018-12-29T03:30:03.899Z,0
2018-12-29T03:35:03.391Z,0
2018-12-29T03:40:02.883Z,0
2018-12-29T03:45:03.445Z,0
2018-12-29T03:50:02.970Z,0
2018-12-29T03:55:03.479Z,0
2018-12-29T04:00:02.991Z,0
2018-12-29T04:05:03.488Z,0
2018-12-29T04:10:02.970Z,0
2018-12-29T04:15:03.434Z,0
2018-12-29T04:20:02.976Z,0
2018-12-29T04:25:03.531Z,0
2018-12-29T04:30:03.011Z,0
2018-12-29T04:35:03.459Z,0
2018-12-29T04:40:02.976Z,0
2018-12-29T04:45:03.464Z,0
2018-12-29T04:50:02.999Z,0
2018-12-29T04:55:03.412Z,0
2018-12-29T05:00:03.150Z,0
2018-12-29T05:05:03.737Z,0
2018-12-29T05:10:03.315Z,0
2018-12-29T05:15:02.843Z,0
2018-12-29T05:20:03.351Z,0
2018-12-29T05:25:02.885Z,0
2018-12-29T05:30:03.348Z,0
2018-12-29T05:35:02.893Z,0
2018-12-29T05:40:03.491Z,0
2018-12-29T05:45:04.273Z,0
2018-12-29T05:50:02.759Z,0
2018-12-29T05:55:03.231Z,0
2018-12-29T06:00:02.733Z,0
2018-12-29T06:05:03.172Z,0
2018-12-29T06:10:02.771Z,0
2018-12-29T06:15:03.294Z,0
2018-12-29T06:20:02.857Z,0
2018-12-29T06:25:03.433Z,0
2018-12-29T06:30:02.861Z,0
2018-12-29T06:35:03.317Z,0
2018-12-29T06:40:02.899Z,0
2018-12-29T06:45:03.265Z,0
2018-12-29T06:50:02.770Z,0
2018-12-29T06:55:03.341Z,0
2018-12-29T07:00:02.847Z,0
2018-12-29T07:05:03.383Z,0
2018-12-29T07:10:02.874Z,0
2018-12-29T07:15:05.557Z,0
2018-12-29T07:20:03.407Z,0
2018-12-29T07:25:02.910Z,0
2018-12-29T07:30:03.458Z,0
2018-12-29T07:35:02.956Z,0
2018-12-29T07:40:03.441Z,0
2018-12-29T07:45:02.901Z,0
2018-12-29T07:50:03.385Z,0
2018-12-29T07:55:02.902Z,0
2018-12-29T08:00:03.372Z,0
2018-12-29T08:05:03.011Z,0
2018-12-29T08:10:03.553Z,0
2018-12-29T08:15:03.054Z,0
2018-12-29T08:20:03.678Z,0
2018-12-29T08:25:03.255Z,0
2018-12-29T08:30:02.732Z,0
2018-12-29T08:35:03.169Z,0
2018-12-29T08:40:03.719Z,0
2018-12-29T08:45:03.178Z,0
2018-12-29T08:50:03.636Z,0
2018-12-29T08:55:03.104Z,0
2018-12-29T09:00:03.595Z,0
2018-12-29T09:05:03.104Z,0
2018-12-29T09:10:03.806Z,0
2018-12-29T09:15:03.339Z,0
2018-12-29T09:20:02.830Z,0
2018-12-29T09:25:03.327Z,0
2018-12-29T09:30:03.166Z,0
2018-12-29T09:35:02.780Z,0
2018-12-29T09:40:03.357Z,0
2018-12-29T09:45:02.954Z,0
2018-12-29T09:50:03.523Z,0
2018-12-29T09:55:02.998Z,0
2018-12-29T10:00:03.455Z,0
2018-12-29T10:05:03.107Z,0
2018-12-29T10:10:02.802Z,0
2018-12-29T10:15:03.230Z,0
2018-12-29T10:20:02.896Z,0
2018-12-29T10:25:03.376Z,0
2018-12-29T10:30:02.856Z,0
2018-12-29T10:35:03.449Z,0
2018-12-29T10:40:03.029Z,0
2018-12-29T10:45:03.515Z,0
2018-12-29T10:50:03.021Z,0
2018-12-29T10:55:03.558Z,0
2018-12-29T11:00:03.097Z,0
2018-12-29T11:05:03.707Z,0
2018-12-29T11:10:03.327Z,0
2018-12-29T11:15:02.912Z,0
2018-12-29T11:20:03.500Z,0
2018-12-29T11:25:03.118Z,0
2018-12-29T11:30:03.654Z,0
2018-12-29T11:35:03.393Z,0
2018-12-29T11:40:02.948Z,0
2018-12-29T11:45:03.487Z,0
2018-12-29T11:50:03.085Z,0
2018-12-29T11:55:03.629Z,0
2018-12-29T12:00:04.294Z,0
2018-12-29T12:05:03.087Z,0
2018-12-29T12:10:03.736Z,0
2018-12-29T12:15:03.506Z,0
2018-12-29T12:20:03.068Z,0
2018-12-29T12:25:03.668Z,0
2018-12-29T12:30:03.252Z,0
2018-12-29T12:35:02.837Z,0
2018-12-29T12:40:03.464Z,0
2018-12-29T12:45:03.318Z,0
2018-12-29T12:50:04.114Z,0
2018-12-29T12:55:03.029Z,0
2018-12-29T13:00:05.213Z,0
2018-12-29T13:05:03.078Z,0
2018-12-29T13:10:05.139Z,0
2018-12-29T13:15:02.951Z,0
2018-12-29T13:20:05.632Z,0
2018-12-29T13:25:03.211Z,0
2018-12-29T13:30:02.843Z,0
2018-12-29T13:35:03.476Z,0
2018-12-29T13:40:03.145Z,0
2018-12-29T13:45:03.735Z,0
2018-12-29T13:50:03.530Z,0
2018-12-29T13:55:03.096Z,0
2018-12-29T14:00:03.836Z,0
2018-12-29T14:05:03.548Z,0
2018-12-29T14:10:03.250Z,0
2018-12-29T14:15:03.812Z,0
2018-12-29T14:20:03.354Z,0
2018-12-29T14:25:02.959Z,0
2018-12-29T14:30:03.462Z,0
2018-12-29T14:35:03.089Z,0
2018-12-29T14:40:04.872Z,0
2018-12-29T14:45:03.622Z,0
2018-12-29T14:50:03.153Z,0
2018-12-29T14:55:02.815Z,0
2018-12-29T15:00:03.375Z,0
2018-12-29T15:05:02.996Z,0
2018-12-29T15:10:03.676Z,0
2018-12-29T15:15:03.367Z,0
2018-12-29T15:20:03.019Z,0
2018-12-29T15:25:03.697Z,0
2018-12-29T15:30:03.332Z,0
2018-12-29T15:35:03.136Z,0
2018-12-29T15:40:02.893Z,0
2018-12-29T15:45:03.554Z,0
2018-12-29T15:50:03.249Z,0
2018-12-29T15:55:02.846Z,0
2018-12-29T16:00:03.526Z,0
2018-12-29T16:05:03.198Z,0
2018-12-29T16:10:02.946Z,0
2018-12-29T16:15:03.762Z,0
2018-12-29T16:20:03.521Z,0
2018-12-29T16:25:03.111Z,0
2018-12-29T16:29:15.559Z,88.39
2018-12-29T16:30:03.732Z,0
2018-12-29T16:35:03.393Z,0
2018-12-29T16:40:04.628Z,0
2018-12-29T16:45:03.694Z,0
2018-12-29T16:50:03.333Z,0
2018-12-29T16:55:02.900Z,0
2018-12-29T17:00:03.652Z,0
2018-12-29T17:05:03.402Z,0
2018-12-29T17:10:03.167Z,0
2018-12-29T17:15:03.796Z,0
2018-12-29T17:20:04.942Z,0
2018-12-29T17:25:02.895Z,0
2018-12-29T17:30:03.498Z,0
2018-12-29T17:35:03.197Z,0
2018-12-29T17:38:12.318Z,88.8
2018-12-29T17:40:04.550Z,0
2018-12-29T17:45:03.367Z,0
2018-12-29T17:50:03.101Z,0
2018-12-29T17:55:03.692Z,0
2018-12-29T18:00:03.360Z,0
2018-12-29T18:02:55.190Z,88.91
2018-12-29T18:05:04.098Z,0
2018-12-29T18:06:55.623Z,88.92
2018-12-29T18:10:03.792Z,0
2018-12-29T18:14:08.334Z,88.99
2018-12-29T18:15:03.436Z,0
2018-12-29T18:15:23.884Z,88.98
2018-12-29T18:20:03.072Z,0
2018-12-29T18:25:03.737Z,89.04
2018-12-29T18:30:03.961Z,89.05
2018-12-29T18:35:03.202Z,89.1
2018-12-29T18:40:03.446Z,89.15
2018-12-29T18:45:03.559Z,89.29
2018-12-29T18:50:03.789Z,89.32
2018-12-29T18:55:02.916Z,89.42
2018-12-29T19:00:03.111Z,89.52
2018-12-29T19:05:03.201Z,89.6
2018-12-29T19:10:03.460Z,89.61
2018-12-29T19:15:05.140Z,89.62
2018-12-29T19:20:03.246Z,89.67
2018-12-29T19:25:03.527Z,89.67
2018-12-29T19:30:06.211Z,89.66
2018-12-29T19:35:05.118Z,89.66
2018-12-29T19:45:03.163Z,89.65
2018-12-29T19:50:03.659Z,89.61
2018-12-29T19:55:05.326Z,89.46
2018-12-29T20:00:04.545Z,89.33
2018-12-29T20:05:03.487Z,89.27
2018-12-29T20:10:03.625Z,89.18
2018-12-29T20:15:03.819Z,89.06
2018-12-29T20:20:02.979Z,89.06
2018-12-29T20:25:03.074Z,89
2018-12-29T20:30:03.339Z,88.9
2018-12-29T20:35:03.493Z,88.82
2018-12-29T20:40:03.723Z,88.7
2018-12-29T20:45:03.870Z,88.62
2018-12-29T20:50:13.413Z,88.51
2018-12-29T20:55:03.340Z,88.36
2018-12-29T21:00:03.512Z,88.27
2018-12-29T21:05:03.685Z,88.16
2018-12-29T21:10:02.899Z,88.08
2018-12-29T21:15:03.038Z,88.08
2018-12-29T21:25:03.969Z,88.05
2018-12-29T21:30:03.207Z,88.06
2018-12-29T21:35:03.437Z,87.99
2018-12-29T21:40:03.870Z,87.9
2018-12-29T21:45:03.115Z,87.84
2018-12-29T21:50:03.277Z,87.86
2018-12-29T21:55:03.494Z,87.81
2018-12-29T22:00:03.564Z,87.74
2018-12-29T22:05:03.699Z,87.67
2018-12-29T22:10:02.901Z,87.68
2018-12-29T22:15:03.085Z,87.7
2018-12-29T22:20:03.172Z,87.66
2018-12-29T22:25:03.323Z,87.63
2018-12-29T22:30:03.502Z,87.59
2018-12-29T22:35:03.607Z,87.59
2018-12-29T22:40:03.831Z,87.62
2018-12-29T22:45:02.893Z,87.56
2018-12-29T22:50:03.101Z,87.55
2018-12-29T22:55:03.190Z,87.58
2018-12-29T23:00:03.918Z,87.58
2018-12-29T23:05:03.416Z,87.55
2018-12-29T23:10:03.664Z,87.58
2018-12-29T23:15:03.953Z,87.57
2018-12-29T23:20:04.570Z,87.57
2018-12-29T23:25:05.184Z,87.6
2018-12-29T23:30:02.962Z,87.58
2018-12-29T23:35:03.176Z,87.54
2018-12-29T23:40:03.451Z,87.52
2018-12-29T23:45:05.196Z,87.53
2018-12-29T23:50:03.235Z,87.58
2018-12-29T23:55:03.416Z,87.57
